Pagrindinis puslapis
METAR-TAF:

METAR-TAF

Oro uostai :

Čeliabinskas, Rusija

platuma: 55-10N, ilguma: 061-24E, Aukštis: 234 m

Dabartinis oras

Ataskaita buvo paskelbta 12 minutes, ne 16:30 UTC
Vėjas 14 kt iš Šiaurės Vakarų
Temperatūra -2°C
Drėgmė 80%
Slėgis 1023 hPa
Matomumas 10 km arba daugiau
Su prošvaistėmis ne aukštis 1700 ft
Sniego pustymas pažeme

METAR: USCC 031630Z 31007MPS 9999 DRSN BKN017 M02/M05 Q1023 R27/420550 NOSIG RMK QFE747

Laikas: 21:42 (16:42 UTC)

Prognozė

Ataskaita buvo paskelbta 2 valandos ir 42 minutes, ne 14:00 UTC
Prognozė galioja nuo 03 metu 15 UTC su 04 metu 15 UTC
Vėjas 10 kt iš Vakarų su gūsio iki 31 kt
Matomumas 10 km arba daugiau
Išsisklaidę debesys ne aukštis 2000 ft, Liūtiniai kamuoliniai debesys.
Laikinai
nuo 03 metu 15 UTC su 04 metu 06 UTC
Su prošvaistėmis ne aukštis 1600 ft, Liūtiniai kamuoliniai debesys.
sniegas,

TAF: USCC 031400Z 0315/0415 27005G16MPS 9999 SCT020CB TEMPO 0315/0406 -SHSN BKN016CB

Orai ataskaitas ir orų prognozės (METAR, TAF).

turimą stotys yra geltonos ir raudonos taškus žemėlapyje.

Perkelti pele per norėdami pamatyti stoties vardą.

Tada spustelėkite, norėdami matyti oro stebėjimo ir prognozės.

Norėdami pakeisti žemėlapį: spustelėkite ant žalios mygtukų su juodo kryžiaus žemyn,; žalią mygtuką su brūkšneliu, jei norite nutolinti; arba žalių rodyklių gretimoms žemėlapius.


METAR-TAF: